NDF181 EDDF-EDDH
Flight info
| Callsign | NDF181 |
|---|---|
| Flight time | N/A |
| Altitude | 35000 |
| Route | MARUN6E/07C MARUN Y150 TOLGI DCT SAS/N0450F340 P605 NOLGO NOLGO3P |
| Aircraft | A319/M-SDE3FGHIRWY/LB1 |
Departure
| Time | N/A |
|---|---|
| Airport | Frankfurt Main Airport (EDDF) |
Arrival
| Time | 2026-04-26 19:24 |
|---|---|
| Airport | Hamburg Helmut Schmidt Airport (EDDH) |
| Time | Latitude | Longitude | Altitude | Speed | Heading |
|---|---|---|---|---|---|
| 2026-04-26 19:01 | 52.55968 | 10.01919 | 32305 ft | 446 kts | 15° |
| 2026-04-26 19:01 | 52.61894 | 10.04683 | 32299 ft | 442 kts | 10° |
| 2026-04-26 19:02 | 52.67763 | 10.07778 | 32303 ft | 450 kts | 24° |
| 2026-04-26 19:02 | 52.70300 | 10.10887 | 32297 ft | 461 kts | 41° |
| 2026-04-26 19:02 | 52.71658 | 10.13594 | 32297 ft | 468 kts | 52° |
| 2026-04-26 19:03 | 52.73395 | 10.20244 | 32292 ft | 480 kts | 75° |
| 2026-04-26 19:03 | 52.73822 | 10.25746 | 31621 ft | 487 kts | 84° |
| 2026-04-26 19:03 | 52.74030 | 10.31318 | 30863 ft | 486 kts | 84° |
| 2026-04-26 19:03 | 52.74231 | 10.36887 | 29954 ft | 487 kts | 84° |
| 2026-04-26 19:04 | 52.74436 | 10.42472 | 28969 ft | 488 kts | 84° |
| 2026-04-26 19:04 | 52.74641 | 10.48071 | 28021 ft | 487 kts | 84° |
| 2026-04-26 19:04 | 52.74843 | 10.53644 | 27098 ft | 486 kts | 84° |
| 2026-04-26 19:04 | 52.75044 | 10.59200 | 26218 ft | 484 kts | 84° |
| 2026-04-26 19:05 | 52.75448 | 10.70109 | 25342 ft | 465 kts | 80° |
| 2026-04-26 19:05 | 52.76211 | 10.75222 | 25246 ft | 455 kts | 65° |
| 2026-04-26 19:05 | 52.77671 | 10.79807 | 25285 ft | 448 kts | 50° |
| 2026-04-26 19:06 | 52.79738 | 10.83571 | 25287 ft | 439 kts | 36° |
| 2026-04-26 19:06 | 52.82259 | 10.86323 | 25280 ft | 431 kts | 21° |
| 2026-04-26 19:06 | 52.85050 | 10.87973 | 25281 ft | 424 kts | 8° |
| 2026-04-26 19:06 | 52.87953 | 10.88509 | 25281 ft | 417 kts | 355° |
| 2026-04-26 19:07 | 52.90817 | 10.88006 | 25266 ft | 414 kts | 347° |
| 2026-04-26 19:07 | 52.93659 | 10.87228 | 24811 ft | 412 kts | 347° |
| 2026-04-26 19:07 | 52.96475 | 10.86457 | 24335 ft | 409 kts | 347° |
| 2026-04-26 19:07 | 52.99270 | 10.85693 | 23868 ft | 406 kts | 347° |
| 2026-04-26 19:08 | 53.02048 | 10.84934 | 23320 ft | 403 kts | 347° |
| 2026-04-26 19:08 | 53.04810 | 10.84178 | 22775 ft | 401 kts | 347° |
| 2026-04-26 19:08 | 53.07548 | 10.83427 | 22240 ft | 398 kts | 347° |
| 2026-04-26 19:08 | 53.10265 | 10.82680 | 21718 ft | 395 kts | 347° |
| 2026-04-26 19:09 | 53.12969 | 10.81938 | 21199 ft | 392 kts | 347° |
| 2026-04-26 19:09 | 53.15655 | 10.81202 | 20691 ft | 389 kts | 348° |
| 2026-04-26 19:09 | 53.18316 | 10.80473 | 20191 ft | 387 kts | 348° |
| 2026-04-26 19:09 | 53.20965 | 10.79742 | 19701 ft | 385 kts | 348° |
| 2026-04-26 19:10 | 53.23597 | 10.79015 | 19211 ft | 383 kts | 348° |
| 2026-04-26 19:10 | 53.26219 | 10.78292 | 18757 ft | 380 kts | 348° |
| 2026-04-26 19:10 | 53.28817 | 10.77572 | 18246 ft | 377 kts | 347° |
| 2026-04-26 19:10 | 53.31265 | 10.76322 | 17716 ft | 371 kts | 334° |
| 2026-04-26 19:11 | 53.33601 | 10.74544 | 17185 ft | 367 kts | 334° |
| 2026-04-26 19:11 | 53.35915 | 10.72769 | 16669 ft | 364 kts | 334° |
| 2026-04-26 19:11 | 53.38207 | 10.71001 | 16157 ft | 362 kts | 334° |
| 2026-04-26 19:11 | 53.40446 | 10.69267 | 15664 ft | 359 kts | 334° |
| 2026-04-26 19:12 | 53.42711 | 10.67513 | 15056 ft | 358 kts | 334° |
| 2026-04-26 19:12 | 53.44973 | 10.65761 | 14447 ft | 358 kts | 334° |
| 2026-04-26 19:12 | 53.47231 | 10.64012 | 13825 ft | 356 kts | 334° |
| 2026-04-26 19:12 | 53.49441 | 10.62297 | 13156 ft | 344 kts | 334° |
| 2026-04-26 19:13 | 53.51580 | 10.60634 | 12513 ft | 333 kts | 334° |
| 2026-04-26 19:13 | 53.53639 | 10.59031 | 12015 ft | 319 kts | 334° |
| 2026-04-26 19:13 | 53.55620 | 10.57491 | 11513 ft | 308 kts | 334° |
| 2026-04-26 19:13 | 53.57531 | 10.56002 | 11021 ft | 298 kts | 334° |
| 2026-04-26 19:14 | 53.59387 | 10.54551 | 10535 ft | 292 kts | 334° |
| 2026-04-26 19:14 | 53.61221 | 10.53115 | 10043 ft | 289 kts | 334° |
| 2026-04-26 19:14 | 53.62427 | 10.52174 | 9687 ft | 288 kts | 334° |
| 2026-04-26 19:14 | 53.63656 | 10.51213 | 9330 ft | 288 kts | 334° |
| 2026-04-26 19:15 | 53.66063 | 10.49327 | 8644 ft | 288 kts | 334° |
| 2026-04-26 19:15 | 53.67880 | 10.47901 | 8139 ft | 288 kts | 334° |
| 2026-04-26 19:15 | 53.69692 | 10.46478 | 7621 ft | 285 kts | 334° |
| 2026-04-26 19:15 | 53.71492 | 10.45187 | 7114 ft | 277 kts | 343° |
| 2026-04-26 19:16 | 53.73386 | 10.44906 | 6616 ft | 271 kts | 358° |
| 2026-04-26 19:16 | 53.75252 | 10.44977 | 6089 ft | 265 kts | 359° |
| 2026-04-26 19:16 | 53.77070 | 10.44969 | 5565 ft | 257 kts | 348° |
| 2026-04-26 19:16 | 53.78683 | 10.43907 | 5058 ft | 246 kts | 323° |
| 2026-04-26 19:17 | 53.79892 | 10.41943 | 4536 ft | 238 kts | 302° |
| 2026-04-26 19:17 | 53.80570 | 10.39446 | 4019 ft | 232 kts | 282° |
| 2026-04-26 19:17 | 53.80677 | 10.36767 | 3507 ft | 227 kts | 261° |
| 2026-04-26 19:17 | 53.80231 | 10.34242 | 3058 ft | 220 kts | 242° |
| 2026-04-26 19:18 | 53.79405 | 10.32223 | 3001 ft | 199 kts | 231° |
| 2026-04-26 19:18 | 53.78526 | 10.30419 | 3011 ft | 198 kts | 231° |
| 2026-04-26 19:18 | 53.77663 | 10.28647 | 3005 ft | 189 kts | 231° |
| 2026-04-26 19:18 | 53.76860 | 10.27001 | 3003 ft | 177 kts | 231° |
| 2026-04-26 19:19 | 53.76081 | 10.25407 | 3003 ft | 176 kts | 231° |
| 2026-04-26 19:19 | 53.75291 | 10.23822 | 3006 ft | 176 kts | 231° |
| 2026-04-26 19:19 | 53.74523 | 10.22278 | 3198 ft | 171 kts | 232° |
| 2026-04-26 19:19 | 53.73784 | 10.20730 | 3127 ft | 168 kts | 232° |
| 2026-04-26 19:20 | 53.73054 | 10.19220 | 2978 ft | 168 kts | 232° |
| 2026-04-26 19:20 | 53.72553 | 10.18193 | 2847 ft | 167 kts | 232° |
| 2026-04-26 19:20 | 53.71565 | 10.16171 | 2558 ft | 167 kts | 232° |
| 2026-04-26 19:20 | 53.70828 | 10.14668 | 2334 ft | 166 kts | 233° |
| 2026-04-26 19:21 | 53.70103 | 10.13189 | 2114 ft | 166 kts | 233° |
| 2026-04-26 19:21 | 53.69352 | 10.11658 | 1879 ft | 168 kts | 233° |
| 2026-04-26 19:21 | 53.68626 | 10.10182 | 1648 ft | 160 kts | 234° |
| 2026-04-26 19:21 | 53.67941 | 10.08792 | 1462 ft | 148 kts | 233° |
| 2026-04-26 19:22 | 53.67286 | 10.07479 | 1182 ft | 145 kts | 234° |
| 2026-04-26 19:22 | 53.66645 | 10.06209 | 978 ft | 141 kts | 234° |
| 2026-04-26 19:22 | 53.66026 | 10.04932 | 814 ft | 140 kts | 236° |
| 2026-04-26 19:22 | 53.65414 | 10.03646 | 638 ft | 141 kts | 232° |
| 2026-04-26 19:23 | 53.64788 | 10.02386 | 466 ft | 140 kts | 231° |
| 2026-04-26 19:23 | 53.64170 | 10.01133 | 271 ft | 139 kts | 231° |
| 2026-04-26 19:23 | 53.63559 | 9.99895 | 93 ft | 136 kts | 232° |
| 2026-04-26 19:23 | 53.62978 | 9.98701 | 45 ft | 118 kts | 230° |
| 2026-04-26 19:24 | 53.62549 | 9.97844 | 41 ft | 71 kts | 230° |
| 2026-04-26 19:24 | 53.62334 | 9.97417 | 40 ft | 31 kts | 216° |
| 2026-04-26 19:24 | 53.62213 | 9.97640 | 45 ft | 17 kts | 54° |
| 2026-04-26 19:25 | 53.62288 | 9.97795 | 47 ft | 17 kts | 48° |
| 2026-04-26 19:25 | 53.62342 | 9.97900 | 47 ft | 18 kts | 51° |
| 2026-04-26 19:25 | 53.62452 | 9.98109 | 47 ft | 18 kts | 43° |
| 2026-04-26 19:25 | 53.62547 | 9.98259 | 47 ft | 19 kts | 48° |
| 2026-04-26 19:26 | 53.62633 | 9.98436 | 47 ft | 20 kts | 50° |
| 2026-04-26 19:26 | 53.62723 | 9.98616 | 47 ft | 20 kts | 49° |
| 2026-04-26 19:26 | 53.62817 | 9.98800 | 47 ft | 21 kts | 50° |
| 2026-04-26 19:26 | 53.62910 | 9.98994 | 47 ft | 22 kts | 51° |
| 2026-04-26 19:27 | 53.63003 | 9.99197 | 47 ft | 22 kts | 50° |
| 2026-04-26 19:27 | 53.63100 | 9.99401 | 46 ft | 23 kts | 54° |
| 2026-04-26 19:27 | 53.63196 | 9.99617 | 47 ft | 23 kts | 51° |
| 2026-04-26 19:27 | 53.63304 | 9.99809 | 48 ft | 23 kts | 47° |
| 2026-04-26 19:28 | 53.63406 | 10.00016 | 48 ft | 23 kts | 51° |
| 2026-04-26 19:28 | 53.63362 | 10.00223 | 48 ft | 23 kts | 163° |
| 2026-04-26 19:28 | 53.63245 | 10.00276 | 48 ft | 12 kts | 112° |
| 2026-04-26 19:28 | 53.63244 | 10.00347 | 48 ft | 2 kts | 85° |
| 2026-04-26 19:29 | 53.63245 | 10.00362 | 48 ft | 0 kts | 86° |